Time;durP1;ratioP1;P1;durP2;ratioP2;P2;SDS_P1;SDS_P2;PMS_P1;PMS_P2;Temp;Humidity;BMP_temperature;BMP_pressure;BME280_temperature;BME280_humidity;BME280_pressure;Samples;Min_cycle;Max_cycle;Signal;HPM_P1;HPM_P2
2021/04/24 00:02:18;;;;;;;10.67;8.90;;;6.70;99.90;;;;;;6322081;22;20164;-88
2021/04/24 00:04:43;;;;;;;13.90;9.27;;;6.70;99.90;;;;;;6322831;22;20282;-88
2021/04/24 00:07:09;;;;;;;12.17;8.53;;;6.70;99.90;;;;;;6322522;22;20552;-86
2021/04/24 00:09:38;;;;;;;13.80;8.67;;;6.70;99.90;;;;;;6300533;22;20224;-70
2021/04/24 00:12:04;;;;;;;11.90;8.27;;;6.60;99.90;;;;;;6302805;22;20568;-69
2021/04/24 00:14:30;;;;;;;13.13;8.27;;;6.60;99.90;;;;;;6200683;22;20559;-69
2021/04/24 00:16:58;;;;;;;16.50;9.53;;;6.50;99.90;;;;;;6307553;22;20562;-69
2021/04/24 00:19:24;;;;;;;12.20;8.33;;;6.60;99.90;;;;;;6198311;22;20645;-68
2021/04/24 00:21:50;;;;;;;12.47;8.33;;;6.50;99.90;;;;;;6197995;22;20533;-69
2021/04/24 00:24:15;;;;;;;14.93;9.33;;;6.50;99.90;;;;;;6304154;22;20529;-70
2021/04/24 00:26:41;;;;;;;12.03;8.43;;;6.50;99.90;;;;;;6298787;22;20164;-69
2021/04/24 00:29:07;;;;;;;14.80;8.37;;;6.40;99.90;;;;;;6192703;22;20558;-70
2021/04/24 00:31:33;;;;;;;16.30;8.70;;;6.40;99.90;;;;;;6191300;22;20267;-68
2021/04/24 00:33:58;;;;;;;16.77;8.93;;;6.40;99.90;;;;;;6194109;22;20190;-69
2021/04/24 00:36:24;;;;;;;14.13;8.87;;;6.40;99.90;;;;;;6194262;22;20543;-68
2021/04/24 00:38:49;;;;;;;12.03;8.23;;;6.40;99.90;;;;;;6298692;22;20167;-69
2021/04/24 00:41:15;;;;;;;12.70;8.83;;;6.40;99.90;;;;;;6193338;22;20211;-68
2021/04/24 00:43:41;;;;;;;11.90;8.83;;;6.40;99.90;;;;;;6197359;22;20504;-70
2021/04/24 00:46:13;;;;;;;22.50;9.40;;;6.40;99.90;;;;;;6307266;22;20164;-70
2021/04/24 00:48:42;;;;;;;11.03;7.97;;;6.30;99.90;;;;;;6303316;22;20218;-69
2021/04/24 00:51:08;;;;;;;11.03;7.53;;;6.40;99.90;;;;;;6191235;22;20698;-69
2021/04/24 00:53:35;;;;;;;13.00;7.67;;;6.40;99.90;;;;;;6301613;22;20590;-70
2021/04/24 00:56:01;;;;;;;11.70;7.13;;;6.40;99.90;;;;;;6303749;22;20665;-69
2021/04/24 00:58:27;;;;;;;14.10;8.33;;;6.40;99.90;;;;;;6300031;22;20752;-70
2021/04/24 01:00:53;;;;;;;12.27;8.97;;;6.50;99.90;;;;;;6302795;22;20200;-69
2021/04/24 01:03:18;;;;;;;13.30;7.97;;;6.40;99.90;;;;;;6305113;22;20628;-69
2021/04/24 01:05:47;;;;;;;12.10;8.10;;;6.40;99.90;;;;;;6208174;22;20298;-69
2021/04/24 01:08:12;;;;;;;13.27;7.57;;;6.30;99.90;;;;;;6324402;22;20178;-69
2021/04/24 01:10:44;;;;;;;12.80;8.00;;;6.20;99.90;;;;;;6212176;22;20618;-70
2021/04/24 01:13:10;;;;;;;11.67;7.53;;;6.30;99.90;;;;;;6301323;22;20590;-67
2021/04/24 01:15:36;;;;;;;12.20;7.93;;;6.20;99.90;;;;;;6304645;22;21083;-70
2021/04/24 01:18:05;;;;;;;11.50;8.03;;;6.20;99.90;;;;;;6195524;22;20888;-69
2021/04/24 01:20:32;;;;;;;13.50;7.73;;;6.10;99.90;;;;;;6304001;22;20207;-69
2021/04/24 01:22:58;;;;;;;13.33;7.53;;;6.10;99.90;;;;;;6199067;22;20669;-69
2021/04/24 01:25:25;;;;;;;10.87;7.57;;;6.10;99.90;;;;;;6305339;22;20571;-68
2021/04/24 01:27:53;;;;;;;12.50;8.00;;;6.10;99.90;;;;;;6330550;22;20566;-68
2021/04/24 01:30:24;;;;;;;12.50;8.37;;;6.10;99.90;;;;;;6303500;22;20599;-69
2021/04/24 01:32:50;;;;;;;14.80;8.43;;;6.10;99.90;;;;;;6195283;22;20650;-69
2021/04/24 01:35:19;;;;;;;15.17;8.50;;;6.00;99.90;;;;;;6303112;22;20623;-69
2021/04/24 01:37:45;;;;;;;12.00;8.00;;;6.00;99.90;;;;;;6200427;22;20536;-69
2021/04/24 01:40:14;;;;;;;10.90;7.70;;;6.00;99.90;;;;;;6300908;22;20610;-69
2021/04/24 01:42:40;;;;;;;12.90;8.80;;;6.10;99.90;;;;;;6324891;22;20636;-69
2021/04/24 01:45:08;;;;;;;11.40;7.40;;;6.10;99.90;;;;;;6196517;22;20535;-69
2021/04/24 01:47:34;;;;;;;12.30;7.90;;;6.10;99.90;;;;;;6198106;22;20539;-70
2021/04/24 01:50:00;;;;;;;10.87;8.00;;;6.20;99.90;;;;;;6300679;22;20950;-70
2021/04/24 01:52:40;;;;;;;10.73;7.50;;;6.20;99.90;;;;;;6197861;22;20879;-69
2021/04/24 01:55:15;;;;;;;11.03;7.40;;;6.20;99.90;;;;;;6331838;22;20171;-72
2021/04/24 01:57:42;;;;;;;12.03;7.17;;;6.10;99.90;;;;;;6303918;22;21099;-69
2021/04/24 02:00:11;;;;;;;10.37;7.33;;;6.10;99.90;;;;;;6199716;22;20710;-69
2021/04/24 02:02:37;;;;;;;9.57;6.80;;;6.10;99.90;;;;;;6304846;22;20574;-69
2021/04/24 02:05:11;;;;;;;13.57;8.33;;;6.20;99.90;;;;;;6193913;22;20716;-70
2021/04/24 02:07:37;;;;;;;13.37;8.20;;;6.20;99.90;;;;;;6304911;22;20551;-69
2021/04/24 02:10:11;;;;;;;10.47;7.87;;;6.20;99.90;;;;;;6196313;22;20623;-69
2021/04/24 02:12:38;;;;;;;12.37;8.07;;;6.20;99.90;;;;;;6195992;22;20575;-69
2021/04/24 02:15:07;;;;;;;14.60;8.70;;;6.20;99.90;;;;;;6199300;22;20536;-70
2021/04/24 02:17:32;;;;;;;12.03;7.30;;;6.10;99.90;;;;;;6199142;23;20546;-70
2021/04/24 02:19:58;;;;;;;12.80;7.77;;;6.10;99.90;;;;;;6196932;22;21164;-72
2021/04/24 02:22:24;;;;;;;14.07;7.93;;;6.10;99.90;;;;;;6303874;22;20156;-70
2021/04/24 02:24:56;;;;;;;13.80;7.80;;;6.10;99.90;;;;;;6194882;22;20228;-69
2021/04/24 02:27:25;;;;;;;14.20;8.10;;;6.10;99.90;;;;;;6200236;22;20569;-69
2021/04/24 02:29:51;;;;;;;12.00;8.00;;;6.00;99.90;;;;;;6199242;22;20607;-69
2021/04/24 02:32:20;;;;;;;11.93;7.53;;;6.00;99.90;;;;;;6306176;22;20556;-69
2021/04/24 02:34:49;;;;;;;12.47;7.50;;;6.10;99.90;;;;;;6198539;22;20558;-69
2021/04/24 02:37:16;;;;;;;12.00;7.00;;;6.10;99.90;;;;;;6200567;22;20520;-69
2021/04/24 02:39:43;;;;;;;14.10;7.50;;;6.10;99.90;;;;;;6302550;22;20610;-71
2021/04/24 02:42:14;;;;;;;12.20;7.30;;;6.20;99.90;;;;;;6301942;22;20609;-70
2021/04/24 02:44:40;;;;;;;15.80;8.03;;;6.10;99.90;;;;;;6324084;22;21123;-68
2021/04/24 02:47:06;;;;;;;9.93;6.03;;;6.10;99.90;;;;;;6302293;22;20569;-69
2021/04/24 02:49:35;;;;;;;12.67;7.70;;;5.90;99.90;;;;;;6301671;22;20686;-69
2021/04/24 02:52:02;;;;;;;9.13;7.23;;;5.90;99.90;;;;;;6307401;22;20642;-70
2021/04/24 02:54:30;;;;;;;12.07;7.33;;;5.90;99.90;;;;;;6306281;22;21040;-69
2021/04/24 02:56:55;;;;;;;15.83;7.73;;;5.90;99.90;;;;;;6307077;22;20575;-69
2021/04/24 02:59:21;;;;;;;11.53;6.90;;;6.00;99.90;;;;;;6202147;22;20612;-69
2021/04/24 03:01:48;;;;;;;13.50;7.20;;;6.10;99.90;;;;;;6302995;22;20171;-69
2021/04/24 03:04:14;;;;;;;11.27;7.30;;;6.00;99.90;;;;;;6200271;22;20548;-69
2021/04/24 03:06:41;;;;;;;10.83;6.87;;;6.00;99.90;;;;;;6197720;22;20714;-70
2021/04/24 03:09:09;;;;;;;9.13;6.60;;;6.00;99.90;;;;;;6304193;22;20705;-69
2021/04/24 03:11:35;;;;;;;9.97;7.00;;;6.00;99.90;;;;;;6302580;22;20560;-70
2021/04/24 03:14:01;;;;;;;11.87;7.80;;;6.10;99.90;;;;;;6197145;22;21095;-69
2021/04/24 03:16:27;;;;;;;14.10;6.80;;;5.90;99.90;;;;;;6201311;22;20819;-68
2021/04/24 03:18:53;;;;;;;9.87;6.93;;;5.90;99.90;;;;;;6309011;22;20678;-69
2021/04/24 03:21:21;;;;;;;9.53;6.37;;;5.90;99.90;;;;;;6301982;22;20279;-69
2021/04/24 03:23:47;;;;;;;10.93;6.70;;;5.90;99.90;;;;;;6197527;22;20537;-68
2021/04/24 03:26:14;;;;;;;9.40;6.77;;;5.80;99.90;;;;;;6307885;22;20659;-69
2021/04/24 03:28:40;;;;;;;11.80;7.70;;;6.00;99.90;;;;;;6303426;22;20220;-70
2021/04/24 03:31:06;;;;;;;8.53;6.00;;;6.00;99.90;;;;;;6198746;22;20599;-69
2021/04/24 03:33:32;;;;;;;10.80;6.93;;;6.00;99.90;;;;;;6202431;22;20183;-69
2021/04/24 03:36:00;;;;;;;9.83;6.20;;;6.00;99.90;;;;;;6197879;23;20166;-69
2021/04/24 03:38:26;;;;;;;12.53;6.63;;;6.00;99.90;;;;;;6201408;23;20365;-69
2021/04/24 03:40:51;;;;;;;9.70;6.43;;;6.00;99.90;;;;;;6198801;22;20987;-69
2021/04/24 03:43:18;;;;;;;9.80;5.37;;;6.00;99.90;;;;;;6305577;22;20667;-69
2021/04/24 03:45:44;;;;;;;11.30;5.97;;;6.10;99.90;;;;;;6197224;22;20264;-69
2021/04/24 03:48:09;;;;;;;12.17;6.70;;;6.00;99.90;;;;;;6308028;22;20612;-68
2021/04/24 03:50:37;;;;;;;8.97;6.10;;;6.00;99.90;;;;;;6205298;22;21383;-68
2021/04/24 03:53:03;;;;;;;8.87;5.40;;;6.10;99.90;;;;;;6326171;22;20168;-68
2021/04/24 03:55:29;;;;;;;14.70;8.03;;;6.10;99.90;;;;;;6205996;22;21103;-70
2021/04/24 03:57:55;;;;;;;10.30;5.87;;;6.00;99.90;;;;;;6203228;22;20156;-69
2021/04/24 04:00:26;;;;;;;10.67;6.20;;;5.90;99.90;;;;;;6307263;22;20229;-69
2021/04/24 04:02:57;;;;;;;12.10;6.43;;;5.80;99.90;;;;;;6199863;22;20857;-69
2021/04/24 04:05:27;;;;;;;13.23;6.33;;;5.80;99.90;;;;;;6204802;22;20546;-68
2021/04/24 04:07:53;;;;;;;10.93;6.33;;;5.80;99.90;;;;;;6305514;22;20608;-69
2021/04/24 04:10:22;;;;;;;13.17;6.30;;;5.90;99.90;;;;;;6308405;22;21039;-70
2021/04/24 04:12:49;;;;;;;13.17;5.90;;;6.00;99.90;;;;;;6203900;22;20179;-69
2021/04/24 04:15:16;;;;;;;9.13;6.00;;;5.90;99.90;;;;;;6309462;22;20619;-68
2021/04/24 04:18:00;;;;;;;11.53;6.13;;;5.90;99.90;;;;;;6307054;22;20642;-68
2021/04/24 04:20:25;;;;;;;13.23;6.60;;;5.90;99.90;;;;;;6204229;22;20599;-70
2021/04/24 04:22:51;;;;;;;10.50;6.37;;;5.90;99.90;;;;;;6204602;22;20543;-69
2021/04/24 04:25:16;;;;;;;9.40;6.90;;;5.90;99.90;;;;;;6204518;22;20160;-68
2021/04/24 04:27:42;;;;;;;12.37;6.77;;;5.90;99.90;;;;;;6203597;22;20491;-69
2021/04/24 04:30:13;;;;;;;11.73;7.10;;;6.00;99.90;;;;;;6301506;22;20230;-69
2021/04/24 04:32:41;;;;;;;9.60;6.13;;;6.00;99.90;;;;;;6306687;22;21290;-68
2021/04/24 04:35:09;;;;;;;11.07;6.40;;;6.00;99.90;;;;;;6302897;22;20570;-68
2021/04/24 04:37:35;;;;;;;10.90;6.10;;;6.10;99.90;;;;;;6298066;22;20609;-68
2021/04/24 04:40:00;;;;;;;12.00;6.20;;;6.10;99.90;;;;;;6305378;22;21147;-68
2021/04/24 04:42:27;;;;;;;11.60;5.43;;;6.10;99.90;;;;;;6198231;22;20278;-69
2021/04/24 04:44:53;;;;;;;10.87;6.27;;;6.10;99.90;;;;;;6198244;22;20209;-70
2021/04/24 04:47:18;;;;;;;12.67;6.53;;;6.00;99.90;;;;;;6196678;22;20528;-69
2021/04/24 04:49:44;;;;;;;11.20;6.40;;;6.00;99.90;;;;;;6303724;22;20944;-70
2021/04/24 04:52:10;;;;;;;8.17;5.50;;;6.10;99.90;;;;;;6301213;22;20245;-69
2021/04/24 04:54:35;;;;;;;9.40;5.63;;;6.10;99.90;;;;;;6296634;22;20609;-69
2021/04/24 04:57:01;;;;;;;10.23;6.33;;;6.10;99.90;;;;;;6199313;22;20159;-69
2021/04/24 04:59:28;;;;;;;8.17;5.20;;;6.10;99.90;;;;;;6299816;22;20211;-70
2021/04/24 05:01:55;;;;;;;9.30;5.60;;;6.20;99.90;;;;;;6305897;22;20571;-71
2021/04/24 05:04:21;;;;;;;9.10;6.00;;;6.20;99.90;;;;;;6306581;22;20608;-71
2021/04/24 05:06:49;;;;;;;11.77;6.30;;;6.10;99.90;;;;;;6303974;22;20938;-70
2021/04/24 05:09:15;;;;;;;8.57;5.47;;;6.30;99.90;;;;;;6196663;22;20239;-71
2021/04/24 05:11:43;;;;;;;9.97;5.87;;;6.30;99.90;;;;;;6301754;22;20577;-70
2021/04/24 05:14:08;;;;;;;9.07;5.00;;;6.20;99.90;;;;;;6197916;22;20606;-70
2021/04/24 05:16:34;;;;;;;9.80;5.40;;;6.30;99.90;;;;;;6197287;22;20546;-71
2021/04/24 05:18:59;;;;;;;8.17;5.10;;;6.30;99.90;;;;;;6193806;22;20164;-71
2021/04/24 05:21:25;;;;;;;10.57;5.97;;;6.30;99.90;;;;;;6198424;22;20184;-71
2021/04/24 05:23:53;;;;;;;8.47;4.73;;;6.40;99.90;;;;;;6304204;22;20500;-71
2021/04/24 05:26:18;;;;;;;8.80;5.10;;;6.40;99.90;;;;;;6195490;23;20560;-71
2021/04/24 05:28:44;;;;;;;8.40;5.50;;;6.30;99.90;;;;;;6196707;22;20531;-70
2021/04/24 05:31:09;;;;;;;8.70;5.47;;;6.30;99.90;;;;;;6300663;22;20232;-71
2021/04/24 05:33:35;;;;;;;7.20;4.53;;;6.30;99.90;;;;;;6301493;22;20241;-72
2021/04/24 05:36:03;;;;;;;9.73;4.77;;;6.40;99.90;;;;;;6306222;22;20628;-71
2021/04/24 05:38:29;;;;;;;13.13;5.07;;;6.40;99.90;;;;;;6201607;22;20627;-71
2021/04/24 05:40:54;;;;;;;7.87;4.63;;;6.60;99.90;;;;;;6301113;22;20611;-70
2021/04/24 05:43:20;;;;;;;8.10;4.60;;;6.60;99.90;;;;;;6196179;22;20318;-71
2021/04/24 05:45:46;;;;;;;10.43;4.73;;;6.60;99.90;;;;;;6198359;22;20182;-71
2021/04/24 05:48:12;;;;;;;8.60;4.73;;;6.60;99.90;;;;;;6201062;22;20258;-70
2021/04/24 05:50:37;;;;;;;15.13;4.40;;;6.70;99.90;;;;;;6302624;22;20214;-71
2021/04/24 05:53:03;;;;;;;10.50;5.40;;;6.70;99.90;;;;;;6197777;22;20579;-71
2021/04/24 05:55:28;;;;;;;10.23;5.30;;;6.70;99.90;;;;;;6197537;22;20153;-70
2021/04/24 05:57:54;;;;;;;9.13;4.37;;;6.70;99.90;;;;;;6201352;22;20153;-71
2021/04/24 06:00:21;;;;;;;8.83;4.40;;;6.80;99.90;;;;;;6296901;22;20200;-70
2021/04/24 06:02:47;;;;;;;8.47;4.80;;;6.80;99.90;;;;;;6188688;22;20705;-71
2021/04/24 06:05:13;;;;;;;6.50;4.30;;;7.00;99.90;;;;;;6181060;22;20958;-70
2021/04/24 06:07:39;;;;;;;11.00;4.43;;;7.00;99.90;;;;;;6190018;22;20577;-70
2021/04/24 06:10:08;;;;;;;11.33;4.80;;;6.90;99.90;;;;;;6197736;22;20228;-70
2021/04/24 06:12:33;;;;;;;10.87;4.97;;;7.00;99.90;;;;;;6196961;22;20567;-70
2021/04/24 06:14:59;;;;;;;11.17;4.70;;;7.00;99.90;;;;;;6198595;22;20536;-70
2021/04/24 06:17:25;;;;;;;7.27;3.63;;;7.10;99.90;;;;;;6307442;22;20194;-71
2021/04/24 06:19:51;;;;;;;11.83;4.50;;;7.20;99.90;;;;;;6304320;22;20386;-71
2021/04/24 06:22:18;;;;;;;8.70;4.00;;;7.20;99.90;;;;;;6333425;22;20600;-71
2021/04/24 06:24:43;;;;;;;7.70;4.20;;;7.10;99.90;;;;;;6305520;22;20372;-71
2021/04/24 06:27:11;;;;;;;8.90;4.03;;;7.10;99.90;;;;;;6201978;22;20552;-71
2021/04/24 06:29:39;;;;;;;12.07;5.10;;;7.20;99.90;;;;;;6196290;22;20236;-71
2021/04/24 06:32:05;;;;;;;11.13;4.60;;;7.20;99.90;;;;;;6193476;22;20642;-70
2021/04/24 06:34:30;;;;;;;11.80;4.47;;;7.20;99.90;;;;;;6208167;22;20662;-70
2021/04/24 06:36:56;;;;;;;8.50;3.67;;;7.30;99.90;;;;;;6325698;22;20225;-69
2021/04/24 06:39:22;;;;;;;8.00;4.60;;;7.30;99.90;;;;;;6309074;22;20196;-69
2021/04/24 06:41:48;;;;;;;9.57;4.50;;;7.30;99.90;;;;;;6195466;22;20232;-69
2021/04/24 06:44:13;;;;;;;10.90;5.13;;;7.40;99.90;;;;;;6194362;22;20228;-70
2021/04/24 06:46:41;;;;;;;7.90;3.83;;;7.50;99.90;;;;;;6298688;22;20579;-70
2021/04/24 06:49:07;;;;;;;10.50;4.07;;;7.50;99.90;;;;;;6196101;22;20216;-70
2021/04/24 06:51:32;;;;;;;8.10;3.50;;;7.70;99.90;;;;;;6293909;22;20603;-62
2021/04/24 06:53:58;;;;;;;10.03;3.67;;;7.80;99.90;;;;;;6194964;23;20198;-64
2021/04/24 06:56:23;;;;;;;11.70;4.60;;;7.80;99.90;;;;;;6226489;23;20713;-60
2021/04/24 06:58:51;;;;;;;8.93;4.23;;;7.80;99.90;;;;;;6226216;23;20378;-61
2021/04/24 07:01:19;;;;;;;13.23;4.70;;;7.80;99.90;;;;;;6168912;23;20216;-61
2021/04/24 07:03:44;;;;;;;10.80;4.00;;;7.90;99.90;;;;;;6194292;23;21196;-60
2021/04/24 07:06:10;;;;;;;10.00;3.90;;;8.00;99.90;;;;;;6168247;23;20564;-61
2021/04/24 07:08:38;;;;;;;8.40;4.03;;;8.10;99.90;;;;;;6199021;23;20161;-61
2021/04/24 07:11:03;;;;;;;12.50;4.23;;;8.10;99.90;;;;;;6198841;22;20218;-61
2021/04/24 07:13:34;;;;;;;7.97;4.20;;;8.20;99.90;;;;;;6196190;23;21067;-61
2021/04/24 07:16:03;;;;;;;9.33;3.73;;;8.20;99.90;;;;;;6199394;23;20144;-60
2021/04/24 07:18:30;;;;;;;10.77;4.20;;;8.30;99.90;;;;;;6199864;23;20535;-59
2021/04/24 07:20:58;;;;;;;9.77;3.93;;;8.40;99.90;;;;;;6198891;22;20615;-62
2021/04/24 07:23:24;;;;;;;12.00;4.07;;;8.40;99.90;;;;;;6198853;23;20566;-59
2021/04/24 07:25:49;;;;;;;7.00;3.17;;;8.50;99.90;;;;;;6167294;23;21053;-58
2021/04/24 07:28:16;;;;;;;8.43;3.80;;;8.60;99.90;;;;;;6193383;23;20540;-61
2021/04/24 07:30:42;;;;;;;8.40;3.87;;;8.60;99.90;;;;;;6189901;22;20654;-60
2021/04/24 07:33:08;;;;;;;7.40;3.47;;;8.70;99.90;;;;;;6163239;23;20611;-59
2021/04/24 07:35:33;;;;;;;5.90;3.63;;;8.80;99.90;;;;;;6191971;23;20632;-61
2021/04/24 07:37:59;;;;;;;6.30;3.30;;;9.00;99.90;;;;;;6197958;23;20156;-62
2021/04/24 07:40:27;;;;;;;5.63;3.10;;;8.90;99.90;;;;;;6196703;22;20200;-61
2021/04/24 07:42:52;;;;;;;8.07;3.27;;;9.00;99.90;;;;;;6197238;23;20153;-61
2021/04/24 07:45:18;;;;;;;11.13;3.13;;;9.00;99.90;;;;;;6192622;23;20852;-61
2021/04/24 07:47:44;;;;;;;9.70;4.23;;;9.10;99.90;;;;;;6184349;23;20170;-61
2021/04/24 07:50:12;;;;;;;8.17;3.50;;;9.20;99.90;;;;;;6208077;22;20271;-90
2021/04/24 07:55:25;;;;;;;8.57;3.57;;;9.30;99.90;;;;;;6251643;22;20626;-90
2021/04/24 07:57:53;;;;;;;7.33;3.93;;;9.20;99.90;;;;;;6234052;22;20598;-89
2021/04/24 08:00:22;;;;;;;9.43;3.97;;;9.30;99.90;;;;;;6226142;22;20578;-90
2021/04/24 08:02:48;;;;;;;7.70;3.30;;;9.30;99.90;;;;;;6207086;22;20580;-88
2021/04/24 08:05:16;;;;;;;5.30;2.90;;;9.50;99.90;;;;;;6203382;23;20586;-90
2021/04/24 08:07:47;;;;;;;11.20;4.00;;;9.50;99.90;;;;;;6232529;22;20552;-88
2021/04/24 08:10:21;;;;;;;9.23;4.20;;;9.50;99.90;;;;;;6202504;22;20610;-90
2021/04/24 08:12:47;;;;;;;5.37;3.00;;;9.70;99.90;;;;;;6207219;22;20621;-89
2021/04/24 08:15:13;;;;;;;6.40;3.07;;;9.80;99.90;;;;;;6207785;22;20571;-90
2021/04/24 08:17:40;;;;;;;6.63;3.33;;;9.80;99.90;;;;;;6208831;22;20156;-89
2021/04/24 08:20:07;;;;;;;5.13;2.93;;;9.90;99.90;;;;;;6206864;23;20579;-88
2021/04/24 08:22:41;;;;;;;9.50;3.57;;;10.00;99.90;;;;;;6231775;22;20587;-90
2021/04/24 08:27:43;;;;;;;6.90;3.60;;;10.10;99.90;;;;;;6166685;22;20625;-89
2021/04/24 08:30:13;;;;;;;5.93;3.00;;;10.20;99.90;;;;;;6223831;22;20606;-89
2021/04/24 08:32:39;;;;;;;5.67;3.03;;;10.10;99.90;;;;;;6227740;22;20578;-91
2021/04/24 08:35:06;;;;;;;6.67;2.97;;;10.20;99.90;;;;;;6230244;22;20587;-89
2021/04/24 08:37:31;;;;;;;6.80;2.70;;;10.30;99.90;;;;;;6241167;22;20184;-89
2021/04/24 08:39:57;;;;;;;5.53;3.57;;;10.50;99.90;;;;;;6181021;22;20725;-89
2021/04/24 08:42:23;;;;;;;9.50;3.80;;;10.60;99.90;;;;;;6182195;23;20608;-89
2021/04/24 08:44:50;;;;;;;6.17;3.47;;;10.70;99.90;;;;;;6199786;23;20188;-91
2021/04/24 08:47:20;;;;;;;5.00;3.30;;;10.60;99.90;;;;;;6203519;22;20180;-92
2021/04/24 08:49:46;;;;;;;7.20;3.60;;;10.50;99.90;;;;;;6191510;22;20597;-90
2021/04/24 08:52:24;;;;;;;8.10;3.57;;;10.50;99.90;;;;;;6196551;23;20559;-88
2021/04/24 08:54:50;;;;;;;7.43;3.40;;;10.60;99.90;;;;;;6173543;23;20509;-89
2021/04/24 08:57:17;;;;;;;8.27;3.10;;;10.80;99.90;;;;;;6194405;23;20603;-88
2021/04/24 08:59:43;;;;;;;6.10;3.37;;;10.80;99.90;;;;;;6167369;22;20671;-89
2021/04/24 09:02:11;;;;;;;6.00;3.33;;;10.90;99.90;;;;;;6190775;23;20547;-89
2021/04/24 09:04:37;;;;;;;7.47;3.17;;;11.00;99.90;;;;;;6195238;22;20547;-93
2021/04/24 09:07:04;;;;;;;5.77;3.07;;;11.00;99.90;;;;;;6210525;22;20583;-92
2021/04/24 09:09:32;;;;;;;10.73;3.60;;;11.20;99.90;;;;;;6208801;22;20631;-91
2021/04/24 09:12:01;;;;;;;4.90;2.70;;;11.20;99.90;;;;;;6192062;22;20567;-88
2021/04/24 09:14:29;;;;;;;4.80;2.90;;;11.20;99.90;;;;;;6186904;23;20643;-87
2021/04/24 09:16:55;;;;;;;7.33;3.07;;;11.30;99.90;;;;;;6186733;23;20888;-88
2021/04/24 09:19:32;;;;;;;5.47;2.60;;;11.30;99.90;;;;;;6189494;22;20901;-91
2021/04/24 09:22:11;;;;;;;5.87;3.00;;;11.50;99.90;;;;;;6202431;22;20568;-90
2021/04/24 09:24:46;;;;;;;5.87;3.40;;;11.60;99.90;;;;;;6209702;22;20560;-89
2021/04/24 09:27:18;;;;;;;8.83;3.00;;;11.70;99.90;;;;;;6211360;22;20595;-89
2021/04/24 09:29:46;;;;;;;6.13;3.00;;;11.80;99.90;;;;;;6211223;22;20584;-92
2021/04/24 09:32:22;;;;;;;5.57;3.13;;;11.80;99.90;;;;;;6198666;22;20611;-88
2021/04/24 09:34:51;;;;;;;3.80;2.77;;;11.80;99.90;;;;;;6193493;23;20619;-89
2021/04/24 09:37:21;;;;;;;3.83;2.30;;;11.80;99.90;;;;;;6221983;23;20583;-89
2021/04/24 09:39:54;;;;;;;6.23;2.80;;;11.90;99.90;;;;;;6192743;22;20588;-90
2021/04/24 09:42:40;;;;;;;5.20;2.47;;;12.00;99.90;;;;;;6195393;23;21084;-89
2021/04/24 09:45:26;;;;;;;3.53;2.40;;;12.00;99.90;;;;;;6191484;23;20555;-90
2021/04/24 09:47:53;;;;;;;4.07;2.70;;;12.10;99.90;;;;;;6193361;23;20591;-88
2021/04/24 09:50:38;;;;;;;6.10;2.73;;;12.20;99.90;;;;;;6193309;22;20583;-88
2021/04/24 09:53:15;;;;;;;3.90;2.40;;;12.20;99.90;;;;;;6192700;23;20622;-89
2021/04/24 09:55:41;;;;;;;4.13;2.00;;;12.20;99.90;;;;;;6191549;23;20574;-89
2021/04/24 09:58:33;;;;;;;5.90;2.27;;;12.20;99.90;;;;;;6192858;23;20591;-89
2021/04/24 10:01:20;;;;;;;3.70;2.43;;;12.30;99.90;;;;;;6186547;22;20606;-89
2021/04/24 10:03:48;;;;;;;5.03;2.27;;;12.50;99.90;;;;;;6189570;23;20555;-89
2021/04/24 10:06:26;;;;;;;5.07;2.70;;;12.50;99.90;;;;;;6192773;23;20576;-88
2021/04/24 10:09:11;;;;;;;2.80;1.70;;;12.50;99.90;;;;;;6179225;22;20656;-90
2021/04/24 10:11:37;;;;;;;1.57;1.47;;;12.50;99.90;;;;;;6195324;23;20589;-91
2021/04/24 10:14:04;;;;;;;3.43;1.97;;;12.60;99.90;;;;;;6199517;22;20632;-92
2021/04/24 10:16:42;;;;;;;2.80;1.87;;;12.60;99.90;;;;;;6200694;23;21171;-92
2021/04/24 10:19:13;;;;;;;2.13;1.93;;;12.60;99.90;;;;;;6219244;22;21096;-90
2021/04/24 10:21:40;;;;;;;3.80;2.40;;;12.60;99.90;;;;;;6193772;23;20563;-90
2021/04/24 10:24:12;;;;;;;3.23;2.50;;;12.70;99.90;;;;;;6200094;22;20575;-92
2021/04/24 10:26:43;;;;;;;3.50;2.33;;;12.70;99.90;;;;;;6200632;23;20602;-89
2021/04/24 10:29:09;;;;;;;3.20;2.40;;;12.70;99.90;;;;;;6187593;22;20587;-90
2021/04/24 10:31:36;;;;;;;3.00;2.13;;;12.80;99.90;;;;;;6186477;23;20670;-90
2021/04/24 10:34:04;;;;;;;3.67;2.10;;;12.90;99.90;;;;;;6186763;23;20614;-89
2021/04/24 10:36:34;;;;;;;6.03;2.20;;;13.00;99.90;;;;;;6212900;23;20563;-89
2021/04/24 10:39:00;;;;;;;4.00;2.07;;;13.10;99.90;;;;;;6127225;22;20721;-91
2021/04/24 10:41:31;;;;;;;3.50;2.23;;;13.30;99.90;;;;;;6117939;23;20678;-90
2021/04/24 10:44:09;;;;;;;3.43;2.30;;;13.50;99.90;;;;;;6180747;23;20559;-89
2021/04/24 10:46:45;;;;;;;4.20;2.37;;;13.60;99.90;;;;;;6181409;23;20566;-89
2021/04/24 10:49:17;;;;;;;2.67;2.30;;;13.70;99.90;;;;;;6186477;22;20559;-91
2021/04/24 10:52:07;;;;;;;3.40;2.60;;;13.70;99.90;;;;;;6190851;23;20575;-91
2021/04/24 10:54:36;;;;;;;5.60;2.90;;;13.70;99.90;;;;;;6194542;23;20623;-89
2021/04/24 11:46:35;;;;;;;3.90;2.47;;;14.50;99.90;;;;;;6254784;22;20657;-90
2021/04/24 11:49:14;;;;;;;2.70;2.20;;;14.80;99.50;;;;;;6307506;22;20584;-89
2021/04/24 11:51:54;;;;;;;3.20;2.10;;;14.90;99.90;;;;;;6183347;23;20563;-89
2021/04/24 11:54:41;;;;;;;3.47;2.70;;;15.10;99.90;;;;;;6192416;22;20623;-90
2021/04/24 11:57:10;;;;;;;4.40;2.30;;;15.40;99.60;;;;;;6179144;22;20599;-88
2021/04/24 11:59:37;;;;;;;2.97;2.37;;;15.70;99.10;;;;;;6183035;22;20664;-88
2021/04/24 12:02:16;;;;;;;3.53;2.00;;;15.80;98.50;;;;;;6184165;23;20952;-88
2021/04/24 12:04:42;;;;;;;3.10;2.30;;;15.90;96.50;;;;;;6184423;23;20957;-89
2021/04/24 12:07:12;;;;;;;4.37;2.50;;;16.00;96.10;;;;;;6182228;23;20605;-90
2021/04/24 12:10:00;;;;;;;2.90;2.50;;;16.10;96.70;;;;;;6250988;22;20606;-87
2021/04/24 12:12:33;;;;;;;5.57;2.63;;;16.00;97.20;;;;;;6351848;22;20562;-87
2021/04/24 12:15:13;;;;;;;3.60;2.30;;;15.90;97.00;;;;;;6351263;22;20901;-85
2021/04/24 12:17:52;;;;;;;4.60;3.10;;;15.90;97.20;;;;;;6245296;22;20625;-85
2021/04/24 12:20:34;;;;;;;5.13;2.80;;;15.70;96.20;;;;;;6322082;22;20720;-90
2021/04/24 12:23:05;;;;;;;3.70;2.70;;;15.60;96.80;;;;;;6318697;22;20573;-86
2021/04/24 12:25:33;;;;;;;4.30;2.73;;;15.40;96.40;;;;;;6323335;22;20631;-88
2021/04/24 12:28:03;;;;;;;3.30;2.83;;;15.50;97.70;;;;;;6332041;22;20926;-92
2021/04/24 12:30:31;;;;;;;5.40;3.00;;;15.60;97.20;;;;;;6322426;22;20606;-89
2021/04/24 12:33:17;;;;;;;3.07;2.77;;;15.70;97.30;;;;;;6319326;22;20630;-87
2021/04/24 12:35:52;;;;;;;2.93;2.57;;;15.90;97.80;;;;;;6318444;22;20908;-92
2021/04/24 12:38:29;;;;;;;5.90;2.70;;;16.30;99.00;;;;;;6324231;22;20574;-90
2021/04/24 12:41:04;;;;;;;3.70;2.50;;;16.30;97.40;;;;;;6211677;22;20686;-87
2021/04/24 12:43:36;;;;;;;4.93;2.50;;;16.30;95.90;;;;;;6212733;22;20718;-90
2021/04/24 12:46:05;;;;;;;4.37;2.87;;;16.30;94.70;;;;;;6317274;22;20571;-89
2021/04/24 12:48:41;;;;;;;4.43;3.33;;;16.20;94.10;;;;;;6320550;22;20565;-85
2021/04/24 12:51:18;;;;;;;4.57;2.90;;;16.10;94.60;;;;;;6308478;22;20587;-88
2021/04/24 12:53:45;;;;;;;3.20;2.70;;;16.20;95.20;;;;;;6318396;22;20606;-89
2021/04/24 12:56:40;;;;;;;3.37;2.10;;;16.50;95.60;;;;;;6314197;22;20575;-87
2021/04/24 13:01:35;;;;;;;5.20;3.03;;;17.00;96.20;;;;;;6256139;22;21160;-69
2021/04/24 13:04:01;;;;;;;3.80;2.27;;;17.20;94.50;;;;;;6242818;22;20582;-68
2021/04/24 13:06:31;;;;;;;4.03;2.70;;;17.40;94.30;;;;;;6225908;23;20629;-70
2021/04/24 13:09:09;;;;;;;3.23;2.60;;;17.50;93.00;;;;;;6219727;22;20208;-69
2021/04/24 13:11:56;;;;;;;3.37;2.47;;;17.40;92.20;;;;;;6226739;23;20499;-70
2021/04/24 13:14:27;;;;;;;2.77;2.20;;;17.30;92.20;;;;;;6227411;22;21052;-70
2021/04/24 13:16:55;;;;;;;3.93;3.00;;;17.30;92.50;;;;;;6225676;23;20563;-70
2021/04/24 13:19:22;;;;;;;3.60;2.97;;;17.40;92.30;;;;;;6197980;22;20590;-66
2021/04/24 13:21:50;;;;;;;3.97;2.90;;;17.40;92.10;;;;;;6226038;23;21189;-70
2021/04/24 13:24:18;;;;;;;3.23;2.33;;;17.70;93.10;;;;;;6201287;23;20622;-70
2021/04/24 13:26:46;;;;;;;3.77;2.50;;;17.90;91.80;;;;;;6225745;23;20840;-68
2021/04/24 13:29:20;;;;;;;3.10;2.37;;;18.00;90.80;;;;;;6191500;22;20551;-67
2021/04/24 13:32:06;;;;;;;3.30;2.50;;;18.20;88.70;;;;;;6196276;23;20672;-69
2021/04/24 13:34:37;;;;;;;3.57;2.27;;;18.60;91.00;;;;;;6227874;22;20899;-69
2021/04/24 13:37:11;;;;;;;4.40;2.23;;;18.90;86.50;;;;;;6228270;23;20523;-71
2021/04/24 13:39:46;;;;;;;3.17;2.07;;;19.20;89.20;;;;;;6222884;22;21482;-63
2021/04/24 13:42:13;;;;;;;1.97;1.87;;;19.50;86.60;;;;;;6221732;23;21078;-64
2021/04/24 13:44:39;;;;;;;3.80;2.30;;;19.60;82.90;;;;;;6198226;23;20638;-64
2021/04/24 13:47:16;;;;;;;3.67;2.00;;;19.80;80.30;;;;;;6227909;23;21095;-63
2021/04/24 13:49:42;;;;;;;3.13;2.10;;;19.80;78.30;;;;;;6221522;22;20723;-65
2021/04/24 13:52:10;;;;;;;2.50;2.03;;;19.90;78.70;;;;;;6228318;23;21043;-66
2021/04/24 13:54:35;;;;;;;1.97;1.87;;;20.00;77.70;;;;;;6198895;23;20284;-63